»·PEaware :: SWA2085 KLAS-KLAX

SWA2085 :: KLAS-KLAX

FLIGHT INFORMATION

Flight Status: Arrived
Operator:
Southwest Airlines
More flights by this operator :: More flights under this callsign
Pilot: Hassan P. (16390)
Aircraft: BOEING 737-800
(B738)
More flights by this aircraft type
Origin: KLAS McCarran Intl
United States
Destination: KLAX Los Angeles Intl
United States
More flights between these airports :: More routes between these airports
Route: +BOACH8 RIKII SHTNR ANJLL4
File this flight plan on PilotEdge
Remarks:
Altitude:
(Current/Filed)
28,000ft
Speed:
(Current/Filed)
402kts
Departed: 03-Aug-18 05:22 PM
Arrived: 03-Aug-18 06:07 PM
Distance/Time
Traveled:
205nm/0:45
Distance/Time
To Go:
Arrived

Flight Plot

Page will automatically refresh every two minutes.

Flight plan parsing failed; only flown route is shown


Map Options




Map Legend


Flown Route
Filed Route
Departure Airport
Arrival Airport
Navaid (VOR, NDB)
Fix

Horizontal Profiles

Position Reports

Time Latitude Longitude Heading Altitude Ground
Speed
03-Aug-18 16:58 36.082947 -115.149022 50 2119ft 0kts
03-Aug-18 16:59 36.082947 -115.149022 49 2119ft 0kts
03-Aug-18 17:00 36.082947 -115.149022 49 2119ft 0kts
03-Aug-18 17:01 36.082947 -115.149022 50 2119ft 0kts
03-Aug-18 17:02 36.082947 -115.149022 50 2119ft 0kts
03-Aug-18 17:03 36.082947 -115.149022 50 2119ft 0kts
03-Aug-18 17:04 36.082947 -115.149022 50 2119ft 0kts
03-Aug-18 17:05 36.082947 -115.149022 50 2119ft 0kts
03-Aug-18 17:06 36.082947 -115.149022 50 2119ft 0kts
03-Aug-18 17:07 36.082947 -115.149022 50 2119ft 0kts
03-Aug-18 17:08 36.082947 -115.149023 49 2119ft 0kts
03-Aug-18 17:09 36.082809 -115.149412 91 2119ft 2kts
03-Aug-18 17:10 36.082983 -115.149781 142 2119ft 0kts
03-Aug-18 17:11 36.082983 -115.149781 142 2119ft 0kts
03-Aug-18 17:12 36.082983 -115.149781 142 2119ft 0kts
03-Aug-18 17:13 36.082649 -115.149509 147 2119ft 11kts
03-Aug-18 17:14 36.079165 -115.147444 155 2119ft 14kts
03-Aug-18 17:15 36.078285 -115.143720 93 2119ft 27kts
03-Aug-18 17:16 36.078269 -115.135551 89 2119ft 22kts
03-Aug-18 17:17 36.078276 -115.128084 90 2119ft 16kts
03-Aug-18 17:18 36.078280 -115.125065 89 2119ft 17kts
03-Aug-18 17:19 36.077517 -115.121564 132 2119ft 0kts
03-Aug-18 17:20 36.077517 -115.121564 132 2119ft 0kts
03-Aug-18 17:21 36.077517 -115.121564 132 2119ft 0kts
03-Aug-18 17:22 36.076503 -115.121558 248 2119ft 7kts
03-Aug-18 17:23 36.076431 -115.153873 270 2587ft 177kts
03-Aug-18 17:24 36.076744 -115.227495 255 4776ft 256kts
03-Aug-18 17:25 36.020226 -115.282778 198 6864ft 285kts
03-Aug-18 17:26 35.943467 -115.309269 183 7233ft 284kts
03-Aug-18 17:27 35.863711 -115.316007 186 9238ft 294kts
03-Aug-18 17:28 35.781296 -115.308427 175 11247ft 312kts
03-Aug-18 17:29 35.689329 -115.297113 176 13085ft 344kts
03-Aug-18 17:30 35.596393 -115.298075 183 14829ft 350kts
03-Aug-18 17:31 35.499211 -115.308093 203 16628ft 354kts
03-Aug-18 17:32 35.413291 -115.367700 212 18442ft 359kts
03-Aug-18 17:33 35.326691 -115.430909 213 20235ft 367kts
03-Aug-18 17:34 35.238333 -115.495107 213 22019ft 375kts
03-Aug-18 17:35 35.147446 -115.560913 214 23806ft 384kts
03-Aug-18 17:36 35.071859 -115.643188 229 25515ft 387kts
03-Aug-18 17:37 34.998187 -115.738143 228 27306ft 396kts
03-Aug-18 17:38 34.921456 -115.836291 227 27976ft 403kts
03-Aug-18 17:39 34.842592 -115.936659 229 27987ft 435kts
03-Aug-18 17:40 34.756113 -116.046478 229 27986ft 465kts
03-Aug-18 17:41 34.665728 -116.161679 229 27980ft 477kts
03-Aug-18 17:42 34.574274 -116.277770 229 27975ft 477kts
03-Aug-18 17:43 34.482782 -116.393505 229 27981ft 477kts
03-Aug-18 17:44 34.401057 -116.512419 245 27948ft 428kts
03-Aug-18 17:45 34.348086 -116.641439 246 25789ft 421kts
03-Aug-18 17:46 34.302228 -116.755153 246 23811ft 414kts
03-Aug-18 17:47 34.256773 -116.868463 245 21847ft 403kts
03-Aug-18 17:48 34.209312 -116.986088 246 19802ft 384kts
03-Aug-18 17:49 34.177476 -117.101950 253 17926ft 363kts
03-Aug-18 17:50 34.147316 -117.214622 253 16253ft 356kts
03-Aug-18 17:51 34.117432 -117.323902 252 14556ft 337kts
03-Aug-18 17:52 34.090147 -117.427719 254 12895ft 330kts
03-Aug-18 17:53 34.065857 -117.524977 253 12083ft 326kts
03-Aug-18 17:54 34.040481 -117.624664 253 12053ft 309kts
03-Aug-18 17:55 34.017989 -117.715704 261 10259ft 290kts
03-Aug-18 17:56 34.010745 -117.799387 264 8751ft 265kts
03-Aug-18 17:57 34.004082 -117.872715 263 7647ft 239kts
03-Aug-18 17:58 33.998029 -117.936741 263 6680ft 224kts
03-Aug-18 17:59 33.992744 -117.991874 262 5814ft 208kts
03-Aug-18 18:00 33.985982 -118.060843 262 4742ft 196kts
03-Aug-18 18:01 33.980464 -118.114846 261 3927ft 187kts
03-Aug-18 18:02 33.975483 -118.165780 261 3359ft 182kts
03-Aug-18 18:03 33.969785 -118.222436 261 2731ft 171kts
03-Aug-18 18:04 33.965825 -118.266394 262 2211ft 152kts
03-Aug-18 18:05 33.961599 -118.311517 262 1646ft 137kts
03-Aug-18 18:06 33.956324 -118.361056 262 847ft 132kts
03-Aug-18 18:07 33.952663 -118.396444 261 255ft 126kts
03-Aug-18 18:08 33.949981 -118.422608 261 126ft 32kts
03-Aug-18 18:09 33.948456 -118.426860 224 126ft 9kts
03-Aug-18 18:10 33.946448 -118.426033 83 126ft 20kts
03-Aug-18 18:11 33.947182 -118.418906 83 126ft 21kts
03-Aug-18 18:12 33.947908 -118.413152 81 126ft 18kts
03-Aug-18 18:13 33.948593 -118.406349 84 126ft 21kts
03-Aug-18 18:14 33.947802 -118.402556 133 126ft 8kts
03-Aug-18 18:15 33.947594 -118.401963 110 126ft 0kts
03-Aug-18 18:16 33.947588 -118.401943 110 126ft 0kts

Navigation Log

Ident Type
Flight plan parsing failed, navigation log unavailable